Main page
METAR-TAF:

METAR-TAF

Airports :

St. Gallen–Altenrhein Airport

St. Gallen, Switzerland

latitude: 47-29-06N, longitude: 009-33-43E, elevation: 398 m

Current weather observation

The report was made 37 minutes ago, at 18:20 UTC
Wind 15 kt from the West with gusts up to 25 kt
Temperature 14°C
Humidity 63%
Pressure 1008 hPa
Visibility 10 km or more
no clouds below 1500 m and no cumulonimbus

METAR: LSZR 241820Z 27015G25KT CAVOK 14/07 Q1008 NOSIG RMK O

Time: 20:57 (18:57 UTC)

Forecast

The report was made 4 hours and 32 minutes ago, at 14:25 UTC
Forecast valid from 24 at 15 UTC to 24 at 24 UTC
Wind 13 kt from the South with gusts up to 25 kt
Visibility 10 km or more
no clouds below 1500 m and no cumulonimbus
Temporary
from 24 at 15 UTC to 24 at 24 UTC
Wind 20 kt from the South with gusts up to 35 kt

TAF: LSZR 241425Z 2415/2424 17013G25KT CAVOK TEMPO 2415/2424 17020G35KT

Weather observations and forecasts of more than 4000 airports (METAR and TAF reports).

The available stations are represented by yellow and red dots on the map.

Hover mouse over dot to see the name of the station.

Then click to see weather observations and forecasts.

To change the map : click on the green buttons with a black cross to zoom in, on the green button with a dash to zoom out, or on the green arrows for adjacent maps.


METAR-TAF: